Schweighofen Airport EDRO

Flugplatz Daten

Name: Schweighofen Airport

Ident: EDRO

Lat: 49,0316658

Long: 7,989999771

Platzhöhe: 492 ft

IataCode:

City: Schweighofen

Metar

2020/03/02 20:20
LIEE 022020Z 28004KT 250V320 9999 FEW040 12/09 Q1005 ARS MSA784 MOD TURB OBS AT 2005Z LEDRO FL100/080

Taf

Gewünschte Webcam nicht vorhanden? Dann fügen Sie eine hinzu. Sie wird dann so schnell wie möglich freigeschaltet
Url: Title: